Station: Cairns Racecourse  

  Atmospheric Gas Attenuation - ITU Rec 676-11   ----------------- dB/100km -----------------
Date Time Temp RH % AH g/m3 Dew Point Wind Direction Speed kph Gust kph Barometer mB Rainfall Since 9am 24GHz 47GHz 76GHz 122GHz 134GHz 241GHz
09/05 14:40 25.4 72 16.95 20 22 30 1014.4 0 36.6 36.1 67.5 178.3 193.1 670.4
09/05 14:30 25.7 73 17.48 20.5 20 30 1014.5 0 37.7 37.0 69.6 183.9 200.1 694.8
09/05 14:20 25.7 71 17 20 19 26 1014.4 0 36.6 36.1 67.4 178.2 193.0 670.3
09/05 14:10 26.1 70 17.14 20.2 17 22 1014.5 0 36.9 36.2 67.7 178.9 194.1 674.0
09/05 14:00 25.8 70 16.85 19.9 22 32 1014.7 0 36.3 35.8 66.7 176.3 190.6 662.0
09/05 13:50 25.7 71 17 20 24 28 1014.6 0 36.6 36.1 67.4 178.2 193.1 670.4
09/05 13:40 25.7 70 16.76 19.8 24 35 1014.7 0 36.1 35.7 66.4 175.4 189.6 658.4
09/05 13:30 25.7 71 17 20 20 32 1015 0 36.6 36.1 67.5 178.3 193.1 670.6
09/05 13:20 25.6 72 17.14 20.2 20 24 1015 0 36.9 36.4 68.2 180.2 195.4 678.6
09/05 13:10 25.6 73 17.38 20.4 20 28 1015 0 37.5 36.8 69.2 183.1 198.9 690.9
09/05 13:00 25.9 74 17.92 20.9 17 35 1015.3 0 38.6 37.7 71.4 188.9 206.1 716.0
09/05 12:50 25.7 71 17 20 20 28 1015.3 0 36.6 36.1 67.5 178.3 193.2 670.8
09/05 12:40 25.7 73 17.48 20.5 17 24 1015.4 0 37.7 37.0 69.6 184.1 200.2 695.3
09/05 12:30 25.7 71 17 20 26 39 1015.6 0 36.6 36.1 67.5 178.4 193.2 670.9
09/05 12:20 26 69 16.8 19.9 32 39 1015.5 0 36.2 35.7 66.3 175.3 189.5 658.2
09/05 12:10 26.2 71 17.48 20.7 20 26 1015.6 0 37.6 36.8 69.2 182.9 198.9 690.8
09/05 12:00 26.2 69 16.99 20.1 26 39 1015.8 0 36.6 35.9 67.0 177.1 191.8 666.1
09/05 11:50 26.4 69 17.18 20.3 20 30 1015.7 0 37.0 36.2 67.7 178.9 194.0 673.9
09/05 11:40 26.5 71 17.77 20.8 26 37 1015.8 0 38.2 37.2 70.2 185.7 202.4 703.0
09/05 11:30 26.2 72 17.73 20.8 24 41 1016.1 0 38.1 37.3 70.3 186.0 202.6 703.8
09/05 11:20 26.5 68 17.02 20.3 30 35 1016.1 0 36.6 35.9 66.9 176.8 191.5 665.2
09/05 11:10 26.1 73 17.87 20.9 26 32 1016.3 0 38.4 37.6 71.1 187.9 205.0 712.1
09/05 11:00 26.3 71 17.58 20.8 20 43 1016.5 0 37.8 37.0 69.6 184.0 200.2 695.5
09/05 10:50 26 73 17.77 20.8 22 30 1016.4 0 38.2 37.4 70.7 187.0 203.8 707.9
09/05 10:40 26 72 17.53 20.6 32 41 1016.5 0 37.7 37.0 69.6 184.1 200.3 695.6
09/05 10:30 26.3 71 17.58 20.8 28 35 1016.7 0 37.8 37.0 69.6 184.0 200.2 695.6
09/05 10:20 25.9 74 17.92 20.9 22 32 1016.8 0 38.6 37.8 71.5 189.1 206.4 716.7
09/05 10:10 26.3 73 18.07 21.1 24 35 1016.8 0 38.8 37.9 71.8 189.9 207.5 720.7
09/05 10:00 26.1 73 17.87 20.9 26 44 1016.8 0 38.4 37.6 71.1 188.0 205.1 712.3
09/05 09:50 25.8 76 18.3 21.2 19 24 1016.8 0 39.4 38.5 73.4 194.0 212.3 737.5
09/05 09:40 25.8 74 17.82 20.8 28 35 1016.7 0 38.4 37.6 71.2 188.1 205.1 712.5
09/05 09:30 25.2 75 17.46 20.5 24 39 1016.8 0 37.6 37.2 70.1 185.2 201.4 699.5
09/05 09:20 25.6 74 17.62 20.6 32 43 1016.6 0 38.0 37.3 70.4 186.2 202.7 704.0
09/05 09:10 25.8 75 18.06 21 24 30 1016.6 0 38.9 38.1 72.2 191.0 208.7 724.9
09/05 09:00 25.7 74 17.72 20.7 24 37 1016.6 0 38.2 37.5 70.8 187.1 203.9 708.2
09/05 08:50 25.2 75 17.46 20.5 32 35 1016.4 0.4 37.7 37.2 70.1 185.2 201.4 699.3
09/05 08:40 25.6 76 18.09 21.1 19 28 1016.4 0.4 38.9 38.2 72.6 191.8 209.7 728.2
09/05 08:30 25.3 76 17.79 20.8 24 39 1016.3 0.4 38.3 37.8 71.5 188.9 206.0 715.4
09/05 08:20 25.3 79 18.49 21.4 22 26 1016.3 0.4 39.8 39.1 74.7 197.5 216.5 752.1
09/05 08:10 25 78 17.96 20.9 24 28 1016.2 0.4 38.7 38.2 72.5 191.7 209.3 727.1
09/05 08:00 24.8 82 18.66 21.5 17 32 1016.2 0.4 40.2 39.6 76.0 200.9 220.6 766.1
09/05 07:50 24.7 82 18.56 21.4 17 19 1016 0.4 40.0 39.5 75.6 199.9 219.3 761.7
09/05 07:40 24.7 80 18.11 21 19 22 1015.8 0.4 39.1 38.6 73.5 194.3 212.4 737.6
09/05 07:30 24.5 80 17.9 20.8 20 35 1015.9 0.4 38.7 38.3 72.7 192.2 209.8 728.5
09/05 07:20 24.2 82 18.04 20.9 19 30 1015.7 0.4 39.0 38.7 73.6 194.7 212.7 738.8
09/05 07:10 23.9 84 18.17 21 13 17 1015.6 0.4 39.3 39.1 74.5 197.1 215.6 748.6
09/05 07:00 23.7 86 18.39 21.2 15 24 1015.5 0.4 39.8 39.6 75.8 200.3 219.5 762.4
09/05 06:50 23.4 88 18.5 21.3 13 15 1015.4 0.4 40.0 39.9 76.6 202.5 222.1 771.3
09/05 06:40 23.5 88 18.61 21.4 13 17 1015.2 0.4 40.3 40.1 77.0 203.6 223.5 776.2
09/05 06:30 23.4 89 18.71 21.5 19 30 1015.1 0.4 40.5 40.3 77.6 205.1 225.4 782.6
09/05 06:20 23.5 88 18.61 21.4 19 26 1014.8 0.4 40.3 40.1 77.0 203.6 223.5 775.9
09/05 06:10 23.5 88 18.61 21.4 19 26 1014.7 0.4 40.3 40.1 77.0 203.5 223.4 775.9
09/05 05:50 23.5 89 18.82 21.6 17 19 1014.6 0.4 40.7 40.5 78.0 206.2 226.7 787.3
09/05 05:40 23.5 89 18.82 21.6 19 22 1014.6 0.4 40.7 40.5 78.0 206.2 226.7 787.3
09/05 05:30 23.7 88 18.82 21.6 19 33 1014.6 0.4 40.7 40.4 77.8 205.7 226.1 785.2
09/05 05:20 23.6 88 18.72 21.5 15 20 1014.4 0.4 40.5 40.2 77.4 204.6 224.8 780.7
09/05 05:10 23.6 88 18.72 21.5 19 22 1014.3 0.4 40.5 40.2 77.4 204.6 224.8 780.6
09/05 05:00 23.5 89 18.82 21.6 15 24 1014.4 0.4 40.7 40.5 77.9 206.2 226.7 787.2
09/05 04:50 23.6 88 18.72 21.5 17 20 1014.3 0.4 40.5 40.2 77.4 204.6 224.8 780.6
09/05 04:40 23.7 88 18.82 21.6 19 26 1014.3 0.4 40.7 40.4 77.7 205.6 226.1 785.0
09/05 04:30 23.6 88 18.72 21.5 17 24 1014.4 0.4 40.5 40.2 77.4 204.6 224.8 780.7
09/05 04:20 23.6 88 18.72 21.5 19 20 1014.3 0.4 40.5 40.2 77.4 204.6 224.8 780.6
09/05 04:10 23.5 89 18.82 21.6 15 20 1014.3 0.4 40.7 40.5 77.9 206.2 226.7 787.1
09/05 04:00 23.5 89 18.82 21.6 15 24 1014.3 0.4 40.7 40.5 77.9 206.2 226.7 787.1
09/05 03:50 23.5 89 18.82 21.6 13 22 1014.2 0.4 40.7 40.5 77.9 206.1 226.7 787.1
09/05 03:40 23.6 88 18.72 21.5 19 24 1014.1 0.4 40.5 40.2 77.3 204.6 224.8 780.5
09/05 03:30 23.4 90 18.92 21.7 20 33 1014.1 0.4 41.0 40.7 78.5 207.7 228.5 793.6
09/05 03:20 23.4 90 18.92 21.7 22 28 1014.1 0.4 41.0 40.7 78.5 207.7 228.5 793.6
09/05 03:10 23.4 91 19.13 21.8 15 17 1014.3 0.4 41.4 41.1 79.5 210.4 231.9 805.2
09/05 03:00 23.4 91 19.13 21.8 17 20 1014.2 0.4 41.4 41.1 79.5 210.4 231.9 805.2
09/05 02:50 23.1 93 19.22 21.9 15 24 1014.2 0.4 41.6 41.4 80.3 212.4 234.3 813.4
09/05 02:40 23 93 19.11 21.8 15 19 1014.2 0.4 41.4 41.3 79.9 211.3 232.8 808.4
09/05 02:30 23 93 19.11 21.8 15 20 1014.3 0.4 41.4 41.3 79.9 211.3 232.8 808.4
09/05 02:20 22.9 93 19 21.7 17 24 1014.2 0.4 41.2 41.1 79.4 210.1 231.4 803.3
09/05 02:10 22.9 93 19 21.7 15 19 1014.2 0.4 41.2 41.1 79.4 210.1 231.4 803.3
09/05 02:00 22.9 93 19 21.7 15 24 1014.3 0.4 41.2 41.1 79.4 210.1 231.4 803.4
09/05 01:50 22.7 94 18.99 21.7 15 17 1014.4 0.4 41.2 41.2 79.6 210.6 231.9 805.1
09/05 01:40 22.7 94 18.99 21.7 17 22 1014.4 0.4 41.2 41.2 79.6 210.6 231.9 805.1
09/05 01:30 22.6 96 19.28 21.9 19 28 1014.7 0.4 41.8 41.8 81.2 214.7 236.9 822.5
09/05 01:20 22.5 97 19.37 22 19 20 1014.7 0.2 42.0 42.1 81.7 216.2 238.7 828.6
09/05 01:10 22.6 96 19.28 21.9 19 22 1014.9 0.2 41.8 41.8 81.2 214.7 236.9 822.6
09/05 01:00 22.6 96 19.28 21.9 19 26 1015 0.2 41.8 41.8 81.2 214.8 236.9 822.7
09/05 00:50 22.7 95 19.19 21.9 13 20 1015 0 41.6 41.6 80.6 213.3 235.2 816.5
09/05 00:40 22.8 94 19.1 21.8 17 20 1015.1 0 41.4 41.4 80.1 211.9 233.4 810.5
09/05 00:30 23.2 91 18.92 21.6 15 24 1015.3 0 41.0 40.9 78.8 208.4 229.3 796.3
09/05 00:20 23.3 89 18.61 21.4 15 20 1015.3 0 40.3 40.2 77.2 204.2 224.1 778.3
09/05 00:10 23.4 88 18.5 21.3 20 24 1015.2 0 40.0 39.9 76.6 202.5 222.1 771.2
09/05 00:00 23.2 88 18.29 21.1 17 26 1015.4 0 39.6 39.6 75.8 200.4 219.5 761.9
08/05 23:50 23.3 88 18.4 21.2 17 26 1015.4 0 39.8 39.8 76.2 201.5 220.9 766.9
08/05 23:40 23.3 88 18.4 21.2 20 26 1015.4 0 39.8 39.8 76.2 201.5 220.9 766.9
08/05 23:30 23.4 87 18.29 21.1 20 32 1015.6 0 39.6 39.6 75.6 199.9 218.9 760.0
08/05 23:20 23.3 89 18.61 21.4 17 20 1015.5 0 40.3 40.2 77.2 204.2 224.2 778.4
08/05 23:10 23.3 91 19.03 21.7 15 20 1015.6 0 41.2 41.0 79.3 209.6 230.8 801.5
08/05 23:00 23.4 90 18.92 21.7 13 20 1015.8 0 40.9 40.8 78.6 208.0 228.8 794.5
08/05 22:50 23.4 91 19.13 21.8 13 17 1015.9 0 41.4 41.2 79.7 210.7 232.1 806.1
08/05 22:40 23.4 91 19.13 21.8 17 24 1016 0 41.4 41.2 79.7 210.7 232.2 806.2
08/05 22:30 23.5 91 19.24 21.9 17 28 1016.1 0 41.6 41.4 80.1 211.9 233.6 811.2
08/05 22:20 23.4 91 19.13 21.8 15 20 1016.1 0 41.4 41.2 79.7 210.7 232.2 806.2
08/05 22:10 23.3 91 19.03 21.7 13 17 1016.1 0 41.2 41.1 79.3 209.7 230.9 801.8
08/05 22:00 23.2 92 19.13 21.8 15 17 1016.2 0 41.4 41.3 79.9 211.3 232.8 808.4

Last Refresh: 09-May-2026 14:24:48

Bureau of Meteorology